Data for 02/27/2009

Time Sea-Level Adjusted Pressure Absolute Pressure Temperature Relative Humidity Dew Point   
(mb) (inHg) (mb) (inHg) (C) (F) (%) (C) (F)
00:05 1015 29.97 844 24.92 -11.7 10.9 90 -13 8.5
00:10 1015 29.97 844 24.92 -11.6 11 90 -13 8.6
00:15 1015 29.97 844 24.92 -11.6 11.1 90 -13 8.6
00:20 1015 29.97 844 24.92 -11.6 11.1 90 -13 8.6
00:25 1015 29.97 844 24.92 -11.6 11.1 89 -13.1 8.5
00:30 1015 29.97 844 24.92 -11.7 10.9 90 -13.1 8.4
00:35 1015 29.97 844 24.92 -11.7 10.9 90 -13 8.6
00:40 1015 29.97 844 24.92 -11.7 10.9 90 -13.1 8.5
00:45 1015 29.97 844 24.92 -11.7 10.9 90 -13 8.6
00:50 1015 29.97 844 24.92 -11.6 11.1 90 -12.9 8.7
00:55 1015 29.97 844 24.92 -11.6 11.2 90 -12.9 8.8
01:00 1015 29.97 844 24.92 -11.6 11.2 90 -12.9 8.8
01:05 1015 29.97 844 24.92 -11.6 11.1 90 -12.9 8.7
01:10 1015 29.97 844 24.92 -11.7 11 91 -12.9 8.7
01:15 1015 29.97 844 24.92 -11.6 11.2 91 -12.8 9
01:20 1015 29.97 844 24.92 -11.4 11.4 91 -12.7 9.1
01:25 1015 29.97 844 24.92 -11.4 11.5 90 -12.7 9.2
01:30 1015 29.97 844 24.92 -11.4 11.6 91 -12.6 9.3
01:35 1015 29.97 844 24.92 -11.3 11.6 90 -12.6 9.3
01:40 1015 29.97 844 24.92 -11.4 11.6 90 -12.6 9.3
01:45 1015 29.97 845 24.95 -11.3 11.7 90 -12.6 9.4
01:50 1015 29.97 845 24.95 -11.2 11.8 90 -12.5 9.4
01:55 1015 29.97 845 24.95 -11.1 12 92 -12.2 10
02:00 1016 30 845 24.95 -10.8 12.5 92 -11.8 10.7
02:05 1016 30 845 24.95 -10.7 12.8 92 -11.7 11
02:10 1016 30 845 24.95 -10.3 13.4 91 -11.5 11.3
02:15 1016 30 845 24.95 -10.2 13.6 92 -11.3 11.6
02:20 1016 30 845 24.95 -10 13.9 92 -11 12.1
02:25 1016 30 845 24.95 -9.8 14.4 93 -10.7 12.7
02:30 1016 30 845 24.95 -9.5 14.9 92 -10.5 13
02:35 1016 30 845 24.95 -9.3 15.2 92 -10.4 13.3
02:40 1016 30 845 24.95 -9.2 15.4 92 -10.2 13.6
02:45 1016 30 845 24.95 -9.1 15.7 93 -10.1 13.9
02:50 1016 30 845 24.95 -9 15.9 93 -9.9 14.1
02:55 1016 30 845 24.95 -8.9 16.1 92 -9.9 14.1
03:00 1016 30 845 24.95 -8.8 16.1 92 -9.9 14.2
03:05 1016 30 845 24.95 -8.8 16.2 92 -9.8 14.3
03:10 1016 30 845 24.95 -8.8 16.3 92 -9.8 14.4
03:15 1016 30 845 24.95 -8.6 16.4 93 -9.6 14.6
03:20 1016 30 845 24.95 -8.5 16.7 92 -9.6 14.7
03:25 1016 30 845 24.95 -8.6 16.6 92 -9.6 14.7
03:30 1016 30 845 24.95 -8.5 16.7 92 -9.6 14.8
03:35 1016 30 846 24.98 -8.5 16.8 92 -9.5 14.8
03:40 1016 30 846 24.98 -8.4 16.8 92 -9.5 14.9
03:45 1016 30 846 24.98 -8.4 16.8 92 -9.5 14.9
03:50 1016 30 846 24.98 -8.4 16.9 92 -9.5 14.9
03:55 1017 30.03 846 24.98 -8.4 16.8 92 -9.4 15
04:00 1017 30.03 846 24.98 -8.4 16.9 92 -9.4 15.1
04:05 1017 30.03 846 24.98 -8.3 17 92 -9.4 15.2
04:10 1017 30.03 846 24.98 -8.3 17 93 -9.3 15.2
04:15 1017 30.03 846 24.98 -8.3 17.1 92 -9.3 15.2
04:20 1017 30.03 846 24.98 -8.3 17.1 92 -9.3 15.2
04:25 1017 30.03 846 24.98 -8.2 17.2 92 -9.3 15.3
04:30 1017 30.03 846 24.98 -8.2 17.2 93 -9.2 15.4
04:35 1017 30.03 846 24.98 -8.2 17.3 92 -9.2 15.4
04:40 1017 30.03 846 24.98 -8.1 17.4 93 -9.1 15.6
04:45 1017 30.03 846 24.98 -8.1 17.4 93 -9.1 15.6
04:50 1017 30.03 846 24.98 -8.1 17.5 93 -9.1 15.7
04:55 1017 30.03 847 25.01 -8 17.6 93 -9 15.7
05:00 1017 30.03 847 25.01 -8 17.6 92 -9.1 15.6
05:05 1017 30.03 847 25.01 -8 17.5 92 -9.1 15.7
05:10 1018 30.06 847 25.01 -8 17.6 92 -9 15.8
05:15 1018 30.06 847 25.01 -7.9 17.7 93 -8.9 15.9
05:20 1018 30.06 847 25.01 -7.9 17.9 93 -8.9 16
05:25 1018 30.06 847 25.01 -7.8 18 92 -8.8 16.1
05:30 1018 30.06 847 25.01 -7.7 18.1 92 -8.8 16.2
05:35 1018 30.06 847 25.01 -7.8 18 92 -8.9 16
05:40 1018 30.06 847 25.01 -7.9 17.7 92 -9.1 15.7
05:45 1018 30.06 847 25.01 -8.1 17.4 92 -9.1 15.6
05:50 1018 30.06 847 25.01 -8.2 17.3 92 -9.2 15.4
05:55 1018 30.06 847 25.01 -8.3 17.1 93 -9.2 15.4
06:00 1018 30.06 848 25.04 -8.2 17.2 93 -9.1 15.5
06:05 1018 30.06 848 25.04 -8.1 17.4 93 -9.1 15.6
06:10 1018 30.06 848 25.04 -8.1 17.4 93 -9.1 15.6
06:15 1019 30.09 848 25.04 -8.3 17.1 93 -9.3 15.3
06:20 1019 30.09 848 25.04 -8.4 16.8 93 -9.3 15.2
06:25 1019 30.09 848 25.04 -8.4 16.9 93 -9.3 15.3
06:30 1019 30.09 848 25.04 -8.3 17 94 -9.2 15.5
06:35 1019 30.09 848 25.04 -8.2 17.2 93 -9.2 15.5
06:40 1019 30.09 848 25.04 -8.2 17.2 93 -9.2 15.5
06:45 1019 30.09 848 25.04 -8.2 17.2 93 -9.1 15.5
06:50 1019 30.09 848 25.04 -8.2 17.3 93 -9.1 15.6
06:55 1019 30.09 848 25.04 -8.1 17.4 93 -9.1 15.7
07:00 1019 30.09 848 25.04 -8.1 17.5 93 -9 15.7
07:05 1019 30.09 848 25.04 -8 17.6 93 -9 15.8
07:10 1019 30.09 848 25.04 -7.9 17.7 92 -9 15.8
07:15 1019 30.09 848 25.04 -7.8 17.9 92 -8.9 15.9
07:20 1019 30.09 848 25.04 -7.8 18 92 -8.9 16
07:25 1019 30.09 849 25.07 -7.7 18.1 92 -8.8 16.1
07:30 1019 30.09 849 25.07 -7.7 18.2 92 -8.8 16.2
07:35 1020 30.12 849 25.07 -7.5 18.5 92 -8.6 16.5
07:40 1020 30.12 849 25.07 -7.2 19 91 -8.4 16.9
07:45 1020 30.12 849 25.07 -7 19.4 91 -8.2 17.3
07:50 1020 30.12 849 25.07 -6.8 19.8 90 -8.1 17.4
07:55 1020 30.12 849 25.07 -6.5 20.2 90 -7.9 17.7
08:00 1020 30.12 849 25.07 -6.4 20.6 89 -7.9 17.9
08:05 1020 30.12 849 25.07 -6.2 20.8 88 -7.9 17.7
08:10 1020 30.12 849 25.07 -6.1 21 86 -8.1 17.4
08:15 1020 30.12 849 25.07 -6 21.2 84 -8.3 17
08:20 1020 30.12 850 25.1 -6 21.2 85 -8.2 17.3
08:25 1020 30.12 850 25.1 -5.9 21.5 81 -8.5 16.6
08:30 1021 30.15 850 25.1 -5.7 21.7 81 -8.5 16.6
08:35 1021 30.15 850 25.1 -5.6 21.9 83 -8.1 17.5
08:40 1021 30.15 850 25.1 -5.2 22.6 79 -8.3 17.1
08:45 1021 30.15 850 25.1 -5.1 22.9 79 -8.1 17.3
08:50 1021 30.15 850 25.1 -4.8 23.3 77 -8.2 17.2
08:55 1021 30.15 850 25.1 -4.8 23.4 77 -8.2 17.2
09:00 1021 30.15 850 25.1 -4.5 23.9 76 -8.1 17.4
09:05 1021 30.15 850 25.1 -4.3 24.2 74 -8.3 17.1
09:10 1021 30.15 850 25.1 -4.4 24.1 69 -9.3 15.3
09:15 1021 30.15 850 25.1 -5 23 73 -9.1 15.6
09:20 1021 30.15 851 25.13 -5.1 22.8 72 -9.3 15.2
09:25 1021 30.15 851 25.13 -5.1 22.9 70 -9.7 14.6
09:30 1021 30.15 851 25.13 -5.1 22.8 73 -9.2 15.4
09:35 1022 30.18 851 25.13 -4.4 24.2 66 -9.8 14.3
09:40 1022 30.18 851 25.13 -4.5 23.9 69 -9.4 15
09:45 1022 30.18 851 25.13 -4.3 24.3 64 -10.1 13.8
09:50 1022 30.18 851 25.13 -4.3 24.2 64 -10.2 13.6
09:55 1022 30.18 851 25.13 -4.9 23.2 70 -9.6 14.8
10:00 1022 30.18 851 25.13 -4.4 24.2 64 -10.2 13.7
10:05 1022 30.18 851 25.13 -3.6 25.5 64 -9.6 14.8
10:10 1022 30.18 851 25.13 -3.5 25.6 64 -9.4 15.1
10:15 1022 30.18 851 25.13 -3.6 25.6 63 -9.5 14.8
10:20 1022 30.18 851 25.13 -2.4 27.6 57 -9.9 14.2
10:25 1022 30.18 851 25.13 -2.4 27.7 58 -9.5 14.8
10:30 1022 30.18 852 25.16 -2.9 26.8 60 -9.7 14.6
10:35 1022 30.18 852 25.16 -3 26.7 60 -9.7 14.5
10:40 1023 30.21 852 25.16 -3.3 26.1 59 -10.1 13.8
10:45 1023 30.21 852 25.16 -2.9 26.8 60 -9.6 14.7
10:50 1023 30.21 852 25.16 -2.5 27.6 59 -9.4 15
10:55 1023 30.21 852 25.16 -2.1 28.1 54 -10.3 13.4
11:00 1023 30.21 852 25.16 -1.5 29.3 55 -9.5 15
11:05 1023 30.21 852 25.16 -0.8 30.5 52 -9.5 14.9
11:10 1023 30.21 852 25.16 -0.7 30.8 50 -9.7 14.5
11:15 1023 30.21 852 25.16 -1.3 29.6 52 -10 14
11:20 1023 30.21 852 25.16 -1.6 29.1 54 -9.9 14.3
11:25 1023 30.21 852 25.16 -2 28.3 54 -10.2 13.6
11:30 1023 30.21 852 25.16 -2.4 27.8 55 -10.3 13.4
11:35 1023 30.21 853 25.19 -1.9 28.5 51 -10.7 12.8
11:40 1023 30.21 853 25.19 -1.6 29 52 -10.3 13.4
11:45 1024 30.24 853 25.19 -1.4 29.4 51 -10.4 13.2
11:50 1024 30.24 853 25.19 -1.6 29.1 54 -9.7 14.5
11:55 1024 30.24 853 25.19 -1.9 28.5 52 -10.4 13.2
12:00 1024 30.24 853 25.19 -2.3 27.9 54 -10.4 13.3
12:05 1024 30.24 853 25.19 -2.4 27.7 53 -10.6 12.9
12:10 1024 30.24 853 25.19 -1.5 29.3 53 -10 14
12:15 1024 30.24 853 25.19 -1.1 29.9 49 -10.6 12.9
12:20 1024 30.24 853 25.19 -0.9 30.4 51 -9.9 14.2
12:25 1024 30.24 853 25.19 -0.6 30.9 48 -10.5 13.2
12:30 1024 30.24 853 25.19 -0.7 30.8 48 -10.3 13.5
12:35 1024 30.24 853 25.19 -0.7 30.7 49 -10.2 13.7
12:40 1024 30.24 853 25.19 -1.3 29.7 48 -11 12.2
12:45 1024 30.24 853 25.19 -1.6 29.2 50 -10.7 12.8
12:50 1024 30.24 853 25.19 -1.3 29.7 51 -10.2 13.6
12:55 1024 30.24 853 25.19 -1.3 29.6 51 -10.2 13.7
13:00 1024 30.24 853 25.19 -1.1 29.9 49 -10.6 13
13:05 1024 30.24 853 25.19 -0.6 30.9 48 -10.4 13.4
13:10 1024 30.24 853 25.19 -0.3 31.4 48 -10.2 13.7
13:15 1024 30.24 853 25.19 -0.7 30.8 48 -10.3 13.5
13:20 1024 30.24 853 25.19 -0.9 30.4 49 -10.4 13.3
13:25 1024 30.24 853 25.19 -0.7 30.8 48 -10.3 13.4
13:30 1024 30.24 853 25.19 -0.3 31.5 45 -10.8 12.6
13:35 1024 30.24 853 25.19 0.4 32.6 42 -11.1 12
13:40 1024 30.24 853 25.19 0.5 32.8 45 -10 14
13:45 1024 30.24 853 25.19 -0.1 31.8 48 -9.8 14.3
13:50 1024 30.24 853 25.19 -1.5 29.3 51 -10.3 13.5
13:55 1024 30.24 853 25.19 -1.1 30 49 -10.5 13
14:00 1024 30.24 853 25.19 -1.7 28.9 52 -10.4 13.4
14:05 1024 30.24 853 25.19 -3 26.5 56 -10.6 12.9
14:10 1024 30.24 853 25.19 -3 26.6 54 -11 12.1
14:15 1024 30.24 853 25.19 -2.7 27.1 53 -11.1 12.1
14:20 1024 30.24 853 25.19 -2.3 27.9 54 -10.3 13.4
14:25 1024 30.24 853 25.19 -2.5 27.4 55 -10.3 13.5
14:30 1024 30.24 853 25.19 -2.7 27.1 54 -10.8 12.5
14:35 1024 30.24 853 25.19 -2.9 26.9 54 -10.9 12.5
14:40 1024 30.24 853 25.19 -2.4 27.8 50 -11.4 11.4
14:45 1024 30.24 853 25.19 -1.5 29.2 50 -10.7 12.7
14:50 1024 30.24 853 25.19 -1 30.1 47 -10.9 12.5
14:55 1024 30.24 853 25.19 -0.6 31 45 -11 12.3
15:00 1024 30.24 853 25.19 -0.5 31.1 47 -10.5 13.1
15:05 1024 30.24 853 25.19 -1.2 29.9 49 -10.6 12.9
15:10 1024 30.24 853 25.19 -0.9 30.3 49 -10.2 13.6
15:15 1024 30.24 853 25.19 -0.9 30.4 47 -10.7 12.7
15:20 1024 30.24 853 25.19 -1 30.1 48 -10.8 12.5
15:25 1024 30.24 853 25.19 -1.3 29.6 47 -11.1 12
15:30 1024 30.24 853 25.19 -1.4 29.5 47 -11.3 11.6
15:35 1024 30.24 853 25.19 -0.8 30.5 47 -10.7 12.8
15:40 1024 30.24 853 25.19 -0.8 30.6 47 -10.7 12.7
15:45 1024 30.24 853 25.19 -0.8 30.5 46 -10.9 12.3
15:50 1024 30.24 853 25.19 -1.1 29.9 46 -11.4 11.4
15:55 1024 30.24 853 25.19 -0.9 30.4 48 -10.6 13
16:00 1024 30.24 853 25.19 -0.6 30.9 43 -11.6 11.1
16:05 1024 30.24 853 25.19 -0.3 31.5 43 -11.4 11.5
16:10 1024 30.24 854 25.22 -0.4 31.3 43 -11.6 11.2
16:15 1024 30.24 854 25.22 -0.4 31.2 44 -11.1 12
16:20 1024 30.24 854 25.22 -0.7 30.8 47 -10.7 12.7
16:25 1024 30.24 854 25.22 -0.9 30.4 48 -10.6 13
16:30 1024 30.24 854 25.22 -1.6 29.1 50 -10.8 12.5
16:35 1024 30.24 854 25.22 -2.3 27.9 51 -11.2 11.9
16:40 1024 30.24 854 25.22 -2.8 26.9 54 -11 12.2
16:45 1025 30.27 854 25.22 -3 26.6 52 -11.5 11.3
16:50 1025 30.27 854 25.22 -3 26.6 54 -11.1 12.1
16:55 1025 30.27 854 25.22 -3 26.7 53 -11.2 11.8
17:00 1025 30.27 854 25.22 -2.6 27.3 49 -11.8 10.7
17:05 1025 30.27 854 25.22 -2.6 27.4 51 -11.4 11.4
17:10 1025 30.27 854 25.22 -3 26.6 52 -11.6 11.1
17:15 1025 30.27 854 25.22 -2.9 26.8 52 -11.4 11.4
17:20 1025 30.27 854 25.22 -3 26.6 52 -11.5 11.3
17:25 1025 30.27 854 25.22 -2.9 26.8 52 -11.5 11.3
17:30 1025 30.27 854 25.22 -3 26.5 51 -11.9 10.6
17:35 1025 30.27 854 25.22 -3.1 26.3 51 -11.9 10.6
17:40 1025 30.27 854 25.22 -3.1 26.3 51 -12 10.4
17:45 1025 30.27 854 25.22 -3.3 26 52 -11.9 10.6
17:50 1025 30.27 854 25.22 -3.6 25.6 52 -12 10.4
17:55 1025 30.27 854 25.22 -3.6 25.6 54 -11.6 11
18:00 1025 30.27 854 25.22 -3.6 25.5 55 -11.4 11.4
18:05 1025 30.27 854 25.22 -3.9 25.1 58 -10.9 12.3
18:10 1025 30.27 854 25.22 -4.3 24.2 60 -11 12.2
18:15 1025 30.27 854 25.22 -4.6 23.7 61 -11.1 12
18:20 1025 30.27 854 25.22 -4.8 23.3 61 -11.2 11.8
18:25 1025 30.27 854 25.22 -5 23 62 -11.2 11.8
18:30 1025 30.27 854 25.22 -5.4 22.3 64 -11.2 11.9
18:35 1025 30.27 854 25.22 -5.8 21.5 70 -10.5 13.1
18:40 1025 30.27 854 25.22 -6.3 20.6 73 -10.5 13.1
18:45 1025 30.27 855 25.25 -6.2 20.9 72 -10.4 13.2
18:50 1025 30.27 855 25.25 -6.4 20.5 74 -10.4 13.3
18:55 1025 30.27 855 25.25 -6.8 19.7 75 -10.5 13.1
19:00 1025 30.27 855 25.25 -6.9 19.7 75 -10.5 13.1
19:05 1025 30.27 855 25.25 -7 19.4 76 -10.6 13
19:10 1026 30.3 855 25.25 -7.3 18.9 76 -10.8 12.5
19:15 1026 30.3 855 25.25 -7.5 18.6 76 -11.1 12.1
19:20 1026 30.3 855 25.25 -7.6 18.2 77 -11 12.2
19:25 1026 30.3 855 25.25 -7.6 18.3 78 -10.8 12.5
19:30 1026 30.3 855 25.25 -7.8 17.9 77 -11.2 11.8
19:35 1026 30.3 855 25.25 -8.5 16.7 80 -11.4 11.4
19:40 1026 30.3 855 25.25 -8.8 16.2 81 -11.5 11.3
19:45 1026 30.3 855 25.25 -8.8 16.2 81 -11.5 11.2
19:50 1026 30.3 855 25.25 -8.8 16.2 81 -11.5 11.3
19:55 1026 30.3 855 25.25 -8.8 16.2 81 -11.5 11.2
20:00 1026 30.3 855 25.25 -8.8 16.2 80 -11.6 11.1
20:05 1026 30.3 855 25.25 -8.7 16.4 76 -12.2 10.1
20:10 1026 30.3 855 25.25 -8.7 16.3 79 -11.8 10.8
20:15 1026 30.3 855 25.25 -8.6 16.6 77 -11.8 10.7
20:20 1026 30.3 855 25.25 -8.5 16.8 74 -12.3 9.8
20:25 1026 30.3 855 25.25 -8.5 16.7 73 -12.5 9.5
20:30 1026 30.3 855 25.25 -8.8 16.1 74 -12.7 9.1
20:35 1026 30.3 855 25.25 -8.7 16.4 73 -12.7 9.2
20:40 1026 30.3 855 25.25 -8.8 16.2 75 -12.5 9.6
20:45 1026 30.3 855 25.25 -9.1 15.6 77 -12.5 9.5
20:50 1026 30.3 855 25.25 -9.2 15.5 78 -12.3 9.8
20:55 1026 30.3 855 25.25 -9.2 15.4 78 -12.3 9.9
21:00 1026 30.3 855 25.25 -9.3 15.3 78 -12.5 9.6
21:05 1026 30.3 855 25.25 -9.3 15.3 79 -12.3 9.9
21:10 1026 30.3 855 25.25 -9.1 15.6 79 -12.2 10.1
21:15 1026 30.3 855 25.25 -9 15.8 79 -12 10.4
21:20 1026 30.3 855 25.25 -9 15.9 79 -12 10.4
21:25 1026 30.3 855 25.25 -8.9 15.9 79 -12 10.4
21:30 1026 30.3 855 25.25 -9 15.9 79 -12 10.3
21:35 1026 30.3 855 25.25 -8.9 16 78 -12 10.4
21:40 1026 30.3 855 25.25 -8.9 16 78 -12 10.4
21:45 1026 30.3 855 25.25 -8.8 16.1 78 -11.9 10.5
21:50 1026 30.3 855 25.25 -8.7 16.3 78 -11.9 10.6
21:55 1026 30.3 855 25.25 -8.6 16.4 78 -11.9 10.7
22:00 1026 30.3 855 25.25 -8.5 16.7 77 -11.8 10.8
22:05 1026 30.3 855 25.25 -8.6 16.6 77 -12 10.4
22:10 1026 30.3 855 25.25 -8.6 16.6 77 -12 10.5
22:15 1026 30.3 855 25.25 -8.7 16.4 76 -12.1 10.2
22:20 1026 30.3 855 25.25 -8.5 16.8 75 -12.1 10.2
22:25 1026 30.3 855 25.25 -8.2 17.2 74 -12 10.3
22:30 1026 30.3 855 25.25 -8.1 17.5 74 -11.9 10.5
22:35 1026 30.3 855 25.25 -8.2 17.2 75 -11.9 10.5
22:40 1026 30.3 855 25.25 -8.4 17 74 -12.3 9.9
22:45 1026 30.3 855 25.25 -8.2 17.3 73 -12.2 10
22:50 1026 30.3 855 25.25 -8.2 17.3 74 -12.1 10.2
22:55 1026 30.3 855 25.25 -8.2 17.3 74 -12.1 10.2
23:00 1026 30.3 855 25.25 -8.3 17.1 74 -12.1 10.2
23:05 1026 30.3 855 25.25 -8.3 17 74 -12.2 10
23:10 1026 30.3 855 25.25 -8.3 17 74 -12.3 9.9
23:15 1026 30.3 855 25.25 -8.5 16.6 74 -12.3 9.8
23:20 1026 30.3 855 25.25 -8.6 16.5 75 -12.3 9.8
23:25 1026 30.3 855 25.25 -8.4 16.8 74 -12.4 9.8
23:30 1026 30.3 855 25.25 -8.5 16.7 74 -12.4 9.7
23:35 1026 30.3 855 25.25 -8.5 16.7 73 -12.5 9.4
23:40 1026 30.3 855 25.25 -8.3 17 73 -12.4 9.7
23:45 1026 30.3 855 25.25 -8.3 17.2 73 -12.3 9.8
23:50 1026 30.3 855 25.25 -8.5 16.7 73 -12.4 9.6
23:55 1026 30.3 856 25.28 -8.7 16.3 74 -12.6 9.4
24:00 1026 30.3 856 25.28 -8.6 16.5 73 -12.6 9.2